Time;durP1;ratioP1;P1;durP2;ratioP2;P2;SDS_P1;SDS_P2;PMS_P1;PMS_P2;Temp;Humidity;BMP_temperature;BMP_pressure;BME280_temperature;BME280_humidity;BME280_pressure;Samples;Min_cycle;Max_cycle;Signal;HPM_P1;HPM_P2
2023/08/24 00:00:49;;;;;;;5.75;4.88;;;20.00;99.90;;;;;;5013881;28;20202;-79
2023/08/24 00:03:18;;;;;;;5.30;4.72;;;20.00;99.90;;;;;;5028905;28;20565;-79
2023/08/24 00:05:46;;;;;;;5.93;5.05;;;20.00;99.90;;;;;;5032157;28;20211;-79
2023/08/24 00:08:13;;;;;;;6.57;5.38;;;20.00;99.90;;;;;;5015676;28;20210;-79
2023/08/24 00:10:44;;;;;;;5.57;4.90;;;19.90;99.90;;;;;;5033778;28;20199;-79
2023/08/24 00:13:11;;;;;;;5.20;4.70;;;19.90;99.90;;;;;;5017244;28;20219;-79
2023/08/24 00:15:39;;;;;;;6.53;5.05;;;20.30;99.90;;;;;;5015291;28;20226;-79
2023/08/24 00:18:07;;;;;;;5.35;4.85;;;20.40;99.90;;;;;;5018573;28;20227;-79
2023/08/24 00:20:37;;;;;;;6.40;5.10;;;20.30;99.90;;;;;;5011971;28;20683;-78
2023/08/24 00:23:04;;;;;;;5.97;5.43;;;20.30;99.90;;;;;;5027765;28;20210;-79
2023/08/24 00:25:32;;;;;;;5.88;4.32;;;20.60;99.90;;;;;;5010814;28;20211;-79
2023/08/24 00:27:59;;;;;;;5.65;5.15;;;20.50;99.90;;;;;;5015363;28;20206;-78
2023/08/24 00:30:27;;;;;;;6.28;5.35;;;20.30;99.90;;;;;;5017873;28;20215;-78
2023/08/24 00:32:54;;;;;;;5.85;5.00;;;20.30;99.90;;;;;;5031429;28;20222;-78
2023/08/24 00:35:22;;;;;;;8.00;5.32;;;20.70;99.90;;;;;;5023487;28;20198;-79
2023/08/24 00:37:51;;;;;;;5.13;4.63;;;20.70;99.90;;;;;;5018535;28;20198;-79
2023/08/24 00:40:18;;;;;;;5.50;5.00;;;20.70;99.90;;;;;;5018292;28;20222;-79
2023/08/24 00:42:47;;;;;;;6.80;5.07;;;20.60;99.90;;;;;;5016730;28;20206;-79
2023/08/24 00:45:15;;;;;;;5.82;4.72;;;20.40;99.90;;;;;;5009741;28;20199;-78
2023/08/24 00:47:45;;;;;;;8.07;4.97;;;20.40;99.90;;;;;;5013915;28;20219;-79
2023/08/24 00:50:13;;;;;;;6.20;5.45;;;20.30;99.90;;;;;;5024877;22;20210;-78
2023/08/24 00:52:43;;;;;;;6.60;4.95;;;20.20;99.90;;;;;;5027657;28;20199;-80
2023/08/24 00:55:12;;;;;;;6.25;5.57;;;20.10;99.90;;;;;;5018516;28;20225;-80
2023/08/24 00:57:41;;;;;;;6.20;5.53;;;19.80;99.90;;;;;;5013894;28;20202;-80
2023/08/24 01:00:11;;;;;;;6.68;5.57;;;19.80;99.90;;;;;;5012823;28;20202;-80
2023/08/24 01:02:39;;;;;;;8.65;5.68;;;19.70;99.90;;;;;;5009716;28;20203;-79
2023/08/24 01:05:07;;;;;;;5.63;5.13;;;19.70;99.90;;;;;;5016423;28;20210;-80
2023/08/24 01:07:37;;;;;;;7.72;5.55;;;19.70;99.90;;;;;;5029514;28;20543;-80
2023/08/24 01:10:07;;;;;;;7.75;6.18;;;19.90;99.90;;;;;;5017946;28;20207;-80
2023/08/24 01:12:45;;;;;;;8.93;6.43;;;20.00;99.90;;;;;;5019914;28;20200;-80
2023/08/24 01:15:17;;;;;;;7.35;6.70;;;19.70;99.90;;;;;;5014063;28;20218;-80
2023/08/24 01:17:48;;;;;;;7.28;5.95;;;19.40;99.90;;;;;;5019605;28;20199;-80
2023/08/24 01:20:16;;;;;;;7.53;5.82;;;19.40;99.90;;;;;;5017906;28;20218;-80
2023/08/24 01:22:50;;;;;;;8.38;5.45;;;19.40;99.90;;;;;;5022256;28;20679;-80
2023/08/24 01:25:34;;;;;;;5.35;4.85;;;19.50;99.90;;;;;;5033874;28;20199;-80
2023/08/24 01:28:05;;;;;;;7.68;6.63;;;19.60;99.90;;;;;;5027476;28;20202;-79
2023/08/24 01:30:35;;;;;;;7.70;5.85;;;19.50;99.90;;;;;;5031448;28;20704;-80
2023/08/24 01:33:04;;;;;;;6.45;5.90;;;19.50;99.90;;;;;;5016274;28;20203;-80
2023/08/24 01:35:32;;;;;;;7.00;6.30;;;19.50;99.90;;;;;;5017673;28;20707;-80
2023/08/24 01:38:02;;;;;;;7.32;6.35;;;19.50;99.90;;;;;;5024850;28;20196;-80
2023/08/24 01:40:37;;;;;;;7.03;6.32;;;19.50;99.90;;;;;;5032718;28;20230;-80
2023/08/24 01:43:08;;;;;;;6.60;6.00;;;19.70;99.90;;;;;;5027409;28;20203;-80
2023/08/24 01:45:36;;;;;;;7.65;6.93;;;19.50;99.90;;;;;;5011925;28;20183;-80
2023/08/24 01:48:05;;;;;;;7.13;6.40;;;19.50;99.90;;;;;;5036796;28;20556;-80
2023/08/24 01:50:34;;;;;;;7.82;6.45;;;19.50;99.90;;;;;;5013746;28;20224;-79
2023/08/24 01:53:02;;;;;;;6.80;6.20;;;19.50;99.90;;;;;;5017802;28;20199;-80
2023/08/24 01:55:29;;;;;;;6.60;5.75;;;19.50;99.90;;;;;;5022399;28;20226;-80
2023/08/24 01:57:57;;;;;;;7.72;6.88;;;19.60;99.90;;;;;;5025188;28;20281;-80
2023/08/24 02:00:26;;;;;;;7.35;6.38;;;19.50;99.90;;;;;;5012011;28;20712;-80
2023/08/24 02:02:53;;;;;;;7.20;6.50;;;19.20;99.90;;;;;;5016884;28;20564;-80
2023/08/24 02:05:21;;;;;;;8.45;7.65;;;19.40;99.90;;;;;;5023133;28;20576;-80
2023/08/24 02:07:52;;;;;;;10.98;8.43;;;19.40;99.90;;;;;;5016225;28;20195;-80
2023/08/24 02:10:20;;;;;;;10.60;9.70;;;18.90;99.90;;;;;;5018530;28;20223;-80
2023/08/24 02:12:47;;;;;;;12.30;9.18;;;18.70;99.90;;;;;;5023114;28;20206;-80
2023/08/24 02:15:15;;;;;;;11.05;9.45;;;18.90;99.90;;;;;;5023649;28;20223;-80
2023/08/24 02:17:57;;;;;;;9.52;8.55;;;18.90;99.90;;;;;;5015754;28;20245;-80
2023/08/24 02:20:24;;;;;;;10.50;9.50;;;19.00;99.90;;;;;;5020157;28;20237;-80
2023/08/24 02:22:52;;;;;;;10.57;8.82;;;19.10;99.90;;;;;;5018018;28;20203;-80
2023/08/24 02:25:20;;;;;;;9.75;8.75;;;19.20;99.90;;;;;;5016523;28;20186;-80
2023/08/24 02:27:48;;;;;;;7.05;6.35;;;19.10;99.90;;;;;;5034152;28;20206;-80
2023/08/24 02:30:16;;;;;;;10.02;8.98;;;19.50;99.90;;;;;;5013193;28;20223;-79
2023/08/24 02:32:43;;;;;;;9.57;8.68;;;19.50;99.90;;;;;;5023628;28;20530;-80
2023/08/24 02:35:12;;;;;;;10.20;9.20;;;19.20;99.90;;;;;;5015745;28;20219;-80
2023/08/24 02:37:39;;;;;;;9.20;8.40;;;19.10;99.90;;;;;;5037289;28;20207;-80
2023/08/24 02:40:09;;;;;;;9.68;8.75;;;19.30;99.90;;;;;;5017803;28;20202;-80
2023/08/24 02:42:36;;;;;;;10.60;9.50;;;19.20;99.90;;;;;;5017518;28;20668;-80
2023/08/24 02:45:05;;;;;;;10.63;9.48;;;18.80;99.90;;;;;;5015432;28;20202;-79
2023/08/24 02:47:33;;;;;;;10.43;9.52;;;18.70;99.90;;;;;;5028907;28;20212;-80
2023/08/24 02:50:01;;;;;;;10.52;9.38;;;18.80;99.90;;;;;;5008761;28;20195;-78
2023/08/24 02:52:29;;;;;;;10.82;9.70;;;18.80;99.90;;;;;;5010424;28;20565;-80
2023/08/24 02:54:58;;;;;;;10.10;9.07;;;18.70;99.90;;;;;;5031037;28;20218;-80
2023/08/24 02:57:26;;;;;;;11.43;8.98;;;18.90;99.90;;;;;;5010820;28;20561;-80
2023/08/24 02:59:53;;;;;;;9.00;8.02;;;19.20;99.90;;;;;;5014369;28;20579;-80
2023/08/24 03:02:27;;;;;;;9.40;7.80;;;19.20;99.90;;;;;;5017421;28;20199;-80
2023/08/24 03:04:55;;;;;;;10.63;9.50;;;19.40;99.90;;;;;;5017280;28;20195;-80
2023/08/24 03:07:22;;;;;;;10.77;8.30;;;19.40;99.90;;;;;;5017267;28;20238;-80
2023/08/24 03:09:51;;;;;;;9.85;8.70;;;19.40;99.90;;;;;;5015630;28;20556;-79
2023/08/24 03:12:18;;;;;;;9.25;8.32;;;19.20;99.90;;;;;;5012428;28;20210;-80
2023/08/24 03:14:46;;;;;;;10.10;8.70;;;19.20;99.90;;;;;;5016536;28;20572;-80
2023/08/24 03:17:13;;;;;;;9.48;8.57;;;19.30;99.90;;;;;;5033873;28;20199;-80
2023/08/24 03:19:41;;;;;;;9.75;8.25;;;19.10;99.90;;;;;;5037557;28;20199;-80
2023/08/24 03:22:08;;;;;;;10.77;9.43;;;19.20;99.90;;;;;;5023790;28;20230;-80
2023/08/24 03:24:36;;;;;;;9.20;8.27;;;19.30;99.90;;;;;;5017022;28;20198;-80
2023/08/24 03:27:05;;;;;;;9.18;8.25;;;19.20;99.90;;;;;;5016519;28;20214;-80
2023/08/24 03:29:32;;;;;;;9.82;8.82;;;19.10;99.90;;;;;;5029771;28;20199;-79
2023/08/24 03:32:01;;;;;;;8.65;7.95;;;19.20;99.90;;;;;;5013955;28;20219;-80
2023/08/24 03:34:29;;;;;;;15.32;9.02;;;19.20;99.90;;;;;;5011814;28;20207;-80
2023/08/24 03:36:57;;;;;;;8.70;7.90;;;19.20;99.90;;;;;;5012888;28;20226;-80
2023/08/24 03:39:24;;;;;;;9.27;8.55;;;19.10;99.90;;;;;;5000844;28;20204;-80
2023/08/24 03:41:51;;;;;;;9.55;8.52;;;19.10;99.90;;;;;;5030080;28;20224;-80
2023/08/24 03:44:21;;;;;;;9.32;8.43;;;19.10;99.90;;;;;;5015026;28;20226;-80
2023/08/24 03:46:48;;;;;;;9.05;8.13;;;19.20;99.90;;;;;;5014788;28;20195;-80
2023/08/24 03:49:16;;;;;;;7.72;7.03;;;19.40;99.90;;;;;;5008675;28;20195;-79
2023/08/24 03:51:44;;;;;;;11.02;9.38;;;20.00;99.90;;;;;;5017241;28;20238;-80
2023/08/24 03:54:11;;;;;;;8.68;7.88;;;20.30;99.90;;;;;;5013688;28;20203;-80
2023/08/24 03:56:39;;;;;;;10.38;8.40;;;20.50;99.90;;;;;;5016067;28;20215;-80
2023/08/24 03:59:07;;;;;;;9.50;8.45;;;20.50;99.90;;;;;;5013737;28;20207;-80
2023/08/24 04:01:36;;;;;;;10.57;9.55;;;20.50;99.90;;;;;;5036694;28;20229;-78
2023/08/24 04:04:04;;;;;;;10.82;9.82;;;20.10;99.90;;;;;;5030683;28;20201;-80
2023/08/24 04:06:31;;;;;;;10.35;9.38;;;19.80;99.90;;;;;;5023512;28;20206;-80
2023/08/24 04:08:59;;;;;;;11.30;10.18;;;19.50;99.90;;;;;;5019864;28;20376;-80
2023/08/24 04:11:26;;;;;;;12.05;10.20;;;19.20;99.90;;;;;;5026785;28;20211;-80
2023/08/24 04:13:54;;;;;;;11.48;10.35;;;19.20;99.90;;;;;;5026476;28;20202;-80
2023/08/24 04:16:21;;;;;;;12.30;11.02;;;19.30;99.90;;;;;;5019127;28;20238;-80
2023/08/24 04:18:50;;;;;;;13.82;11.43;;;18.90;99.90;;;;;;5016140;28;20203;-80
2023/08/24 04:21:19;;;;;;;10.85;9.82;;;18.60;99.90;;;;;;5011820;28;20238;-80
2023/08/24 04:23:46;;;;;;;11.82;9.60;;;18.70;99.90;;;;;;5026748;28;20210;-80
2023/08/24 04:26:14;;;;;;;9.45;8.40;;;18.80;99.90;;;;;;5033121;28;20206;-80
2023/08/24 04:28:41;;;;;;;11.48;9.75;;;19.50;99.90;;;;;;5014517;28;20207;-80
2023/08/24 04:31:09;;;;;;;9.73;8.18;;;19.60;99.90;;;;;;5008044;28;20218;-80
2023/08/24 04:33:36;;;;;;;10.52;9.25;;;19.60;99.90;;;;;;5016485;28;20202;-80
2023/08/24 04:36:06;;;;;;;10.52;9.23;;;19.50;99.90;;;;;;5015834;28;20218;-80
2023/08/24 04:38:33;;;;;;;13.20;9.60;;;19.50;99.90;;;;;;5025921;28;20194;-80
2023/08/24 04:41:01;;;;;;;10.25;9.18;;;19.70;99.90;;;;;;5026605;28;20222;-80
2023/08/24 04:43:28;;;;;;;10.55;9.45;;;20.00;99.90;;;;;;5016091;28;20664;-80
2023/08/24 04:45:56;;;;;;;10.77;8.55;;;20.10;99.90;;;;;;5015802;28;20191;-80
2023/08/24 04:48:44;;;;;;;9.93;8.90;;;19.70;99.90;;;;;;5032031;28;20207;-80
2023/08/24 04:51:13;;;;;;;9.30;8.38;;;19.50;99.90;;;;;;5006527;28;20830;-80
2023/08/24 04:53:40;;;;;;;10.13;8.82;;;19.50;99.90;;;;;;5017871;28;20199;-80
2023/08/24 04:56:07;;;;;;;9.55;8.50;;;19.50;99.90;;;;;;5015317;28;20227;-80
2023/08/24 04:58:35;;;;;;;11.48;8.77;;;19.50;99.90;;;;;;5015781;28;20207;-80
2023/08/24 05:01:02;;;;;;;9.98;8.45;;;19.70;99.90;;;;;;5023444;28;20230;-80
2023/08/24 05:03:30;;;;;;;10.02;8.90;;;19.60;99.90;;;;;;5027183;28;20207;-80
2023/08/24 05:05:57;;;;;;;9.13;7.88;;;19.80;99.90;;;;;;5014768;28;20198;-80
2023/08/24 05:08:26;;;;;;;9.35;8.45;;;19.80;99.90;;;;;;5013901;28;20206;-80
2023/08/24 05:11:00;;;;;;;8.95;7.93;;;19.70;99.90;;;;;;5007859;28;20226;-80
2023/08/24 05:13:42;;;;;;;8.80;7.50;;;19.70;99.90;;;;;;5018747;28;20210;-80
2023/08/24 05:16:10;;;;;;;9.50;7.03;;;19.70;99.90;;;;;;5028684;28;20225;-80
2023/08/24 05:18:38;;;;;;;10.75;6.88;;;19.90;99.90;;;;;;5004768;28;20206;-79
2023/08/24 05:21:06;;;;;;;8.18;6.90;;;19.70;99.90;;;;;;5027444;28;20223;-80
2023/08/24 05:23:51;;;;;;;10.35;7.00;;;19.70;99.90;;;;;;5009961;28;20211;-80
2023/08/24 05:26:22;;;;;;;10.00;6.75;;;19.50;99.90;;;;;;5007173;28;20195;-79
2023/08/24 05:28:49;;;;;;;8.95;6.15;;;19.20;99.90;;;;;;5013366;28;20210;-79
2023/08/24 05:31:21;;;;;;;8.35;6.32;;;19.10;99.90;;;;;;5023916;28;20226;-78
2023/08/24 05:33:59;;;;;;;8.07;6.05;;;19.00;99.90;;;;;;5005247;28;20207;-79
2023/08/24 05:36:27;;;;;;;6.72;6.00;;;19.10;99.90;;;;;;5013151;28;20218;-79
2023/08/24 05:38:56;;;;;;;6.75;5.80;;;19.20;99.90;;;;;;5013407;28;20203;-79
2023/08/24 05:41:23;;;;;;;8.85;5.82;;;19.20;99.90;;;;;;5013150;28;20231;-78
2023/08/24 05:43:52;;;;;;;7.00;6.05;;;19.20;99.90;;;;;;5012726;28;20210;-79
2023/08/24 05:46:20;;;;;;;10.48;6.28;;;19.30;99.90;;;;;;5025721;28;20206;-79
2023/08/24 05:48:47;;;;;;;7.97;5.85;;;19.50;99.90;;;;;;5022506;28;20671;-79
2023/08/24 05:51:15;;;;;;;8.45;6.57;;;19.50;99.90;;;;;;5008490;28;20226;-79
2023/08/24 05:53:42;;;;;;;7.47;5.82;;;19.60;99.90;;;;;;5024602;28;20203;-78
2023/08/24 05:56:11;;;;;;;10.40;6.43;;;19.50;99.90;;;;;;5017175;28;20242;-79
2023/08/24 05:58:38;;;;;;;6.65;5.70;;;19.60;99.90;;;;;;5012330;28;20207;-79
2023/08/24 06:01:06;;;;;;;6.53;5.25;;;19.60;99.90;;;;;;5014977;28;20237;-80
2023/08/24 06:03:45;;;;;;;6.82;5.20;;;19.70;99.90;;;;;;5015496;28;20202;-80
2023/08/24 06:06:12;;;;;;;5.28;4.78;;;20.00;99.90;;;;;;5003469;28;20199;-79
2023/08/24 06:08:39;;;;;;;6.55;5.20;;;20.10;99.90;;;;;;5010263;28;20211;-80
2023/08/24 06:11:07;;;;;;;6.35;5.20;;;20.40;99.90;;;;;;5009590;28;20238;-80
2023/08/24 06:13:36;;;;;;;6.82;5.90;;;20.60;99.90;;;;;;5033620;28;20199;-80
2023/08/24 06:16:04;;;;;;;10.02;6.13;;;20.80;99.90;;;;;;5034969;28;20214;-80
2023/08/24 06:18:31;;;;;;;6.13;5.10;;;20.80;99.90;;;;;;5017392;28;20680;-80
2023/08/24 06:20:58;;;;;;;11.60;5.97;;;20.90;99.90;;;;;;5016623;28;20696;-79
2023/08/24 06:23:26;;;;;;;7.25;5.88;;;21.00;99.90;;;;;;5033568;28;20203;-80
2023/08/24 06:25:53;;;;;;;8.50;6.20;;;20.90;99.90;;;;;;5016985;28;20226;-80
2023/08/24 06:28:21;;;;;;;6.28;5.53;;;21.00;99.90;;;;;;5017112;28;20482;-80
2023/08/24 06:30:49;;;;;;;7.78;5.65;;;20.90;99.90;;;;;;5017441;28;20224;-80
2023/08/24 06:33:18;;;;;;;6.07;5.47;;;21.10;99.90;;;;;;5038095;28;20703;-80
2023/08/24 06:35:46;;;;;;;8.00;5.50;;;21.10;99.90;;;;;;5035101;28;20559;-80
2023/08/24 06:38:14;;;;;;;7.53;5.78;;;21.20;99.90;;;;;;5022865;28;20222;-80
2023/08/24 06:40:41;;;;;;;6.28;5.53;;;21.20;99.90;;;;;;5017546;28;20230;-80
2023/08/24 06:43:09;;;;;;;7.00;6.30;;;21.30;99.90;;;;;;5017296;28;20203;-80
2023/08/24 06:45:36;;;;;;;9.90;6.43;;;21.30;99.90;;;;;;5018331;28;20211;-80
2023/08/24 06:48:06;;;;;;;7.07;6.13;;;21.40;99.90;;;;;;5019024;28;20198;-80
2023/08/24 06:50:36;;;;;;;7.00;6.15;;;21.50;99.90;;;;;;5016979;28;20314;-80
2023/08/24 06:53:04;;;;;;;8.10;7.05;;;21.50;99.90;;;;;;5014905;28;20223;-79
2023/08/24 06:55:31;;;;;;;8.05;6.25;;;21.60;99.90;;;;;;4998461;28;20200;-80
2023/08/24 06:57:59;;;;;;;7.47;6.63;;;21.70;99.90;;;;;;4998342;28;20230;-79
2023/08/24 07:00:26;;;;;;;8.65;7.10;;;21.70;99.90;;;;;;4999870;28;20216;-79
2023/08/24 07:02:53;;;;;;;11.80;8.00;;;21.80;99.90;;;;;;5025299;28;20210;-81
2023/08/24 07:05:22;;;;;;;9.88;7.50;;;21.80;99.90;;;;;;5030519;28;20195;-81
2023/08/24 07:07:51;;;;;;;8.77;7.05;;;21.70;99.90;;;;;;5013346;28;20192;-79
2023/08/24 07:10:18;;;;;;;11.70;7.25;;;21.70;99.90;;;;;;5020780;28;20238;-79
2023/08/24 07:12:48;;;;;;;10.48;8.50;;;21.80;99.90;;;;;;5016498;28;20199;-79
2023/08/24 07:15:15;;;;;;;11.38;8.65;;;21.80;99.90;;;;;;5026835;28;20203;-78
2023/08/24 07:17:52;;;;;;;15.15;10.30;;;21.90;99.90;;;;;;5016452;28;20263;-79
2023/08/24 07:20:20;;;;;;;15.15;11.15;;;21.70;99.90;;;;;;5009476;28;20219;-78
2023/08/24 07:22:50;;;;;;;21.35;12.77;;;21.70;99.90;;;;;;5014122;28;20645;-78
2023/08/24 07:25:18;;;;;;;25.67;14.20;;;21.80;99.90;;;;;;5010328;28;20195;-79
2023/08/24 07:27:46;;;;;;;11.25;10.05;;;21.90;99.90;;;;;;5031649;28;20208;-79
2023/08/24 07:30:14;;;;;;;24.65;11.90;;;22.10;99.90;;;;;;5016847;28;20548;-82
2023/08/24 07:32:42;;;;;;;18.98;12.18;;;22.10;99.90;;;;;;5017969;28;20202;-78
2023/08/24 07:35:09;;;;;;;16.00;10.55;;;22.30;99.90;;;;;;5017925;28;20203;-81
2023/08/24 07:37:37;;;;;;;19.48;10.43;;;22.40;99.90;;;;;;5016735;28;20238;-80
2023/08/24 07:40:08;;;;;;;13.98;9.43;;;22.50;99.90;;;;;;5016458;28;20203;-80
2023/08/24 07:42:46;;;;;;;11.40;9.27;;;22.50;99.90;;;;;;5015616;28;20191;-79
2023/08/24 07:45:14;;;;;;;15.48;8.77;;;22.60;99.90;;;;;;5016646;28;20214;-82
2023/08/24 07:47:42;;;;;;;9.18;7.50;;;22.70;99.90;;;;;;5015879;28;20195;-82
2023/08/24 07:50:10;;;;;;;9.98;7.90;;;22.70;99.90;;;;;;5015500;28;20203;-82
2023/08/24 07:52:39;;;;;;;9.50;7.68;;;22.70;99.90;;;;;;5016061;28;20553;-82
2023/08/24 07:55:09;;;;;;;10.82;7.13;;;22.80;99.90;;;;;;5016192;28;20195;-82
2023/08/24 07:57:37;;;;;;;8.65;7.75;;;22.90;99.90;;;;;;5015909;28;20581;-82
2023/08/24 08:00:07;;;;;;;9.52;7.35;;;22.90;99.90;;;;;;5015215;28;20720;-82
2023/08/24 08:02:41;;;;;;;8.77;7.80;;;23.00;99.90;;;;;;5015958;28;20211;-83
2023/08/24 08:05:10;;;;;;;9.82;7.15;;;23.00;99.90;;;;;;5016045;28;20195;-82
2023/08/24 08:07:37;;;;;;;10.32;7.38;;;23.10;99.90;;;;;;5015711;28;20195;-83
2023/08/24 08:10:06;;;;;;;11.30;6.65;;;23.20;99.90;;;;;;5015419;28;20202;-82
2023/08/24 08:12:35;;;;;;;13.23;7.80;;;23.20;99.90;;;;;;5016030;28;20199;-82
2023/08/24 08:15:03;;;;;;;8.50;7.35;;;23.30;99.90;;;;;;5033528;28;20179;-82
2023/08/24 08:17:31;;;;;;;6.53;5.93;;;23.40;99.90;;;;;;5015147;28;20211;-82
2023/08/24 08:19:58;;;;;;;6.75;5.72;;;23.50;99.90;;;;;;5014777;28;20203;-82
2023/08/24 08:22:26;;;;;;;9.02;6.53;;;23.60;99.90;;;;;;5015616;28;20656;-83
2023/08/24 08:24:56;;;;;;;9.07;6.93;;;23.60;99.90;;;;;;5033728;28;20191;-82
2023/08/24 08:27:23;;;;;;;11.23;8.25;;;23.70;99.90;;;;;;5015740;28;20195;-82
2023/08/24 08:29:52;;;;;;;10.32;9.20;;;23.80;99.90;;;;;;5015105;28;20205;-82
2023/08/24 08:32:20;;;;;;;11.07;8.15;;;23.90;99.90;;;;;;5000983;28;20213;-82
2023/08/24 08:34:47;;;;;;;7.95;6.80;;;23.90;99.90;;;;;;4996451;28;20208;-82
2023/08/24 08:37:15;;;;;;;11.23;7.63;;;24.00;99.90;;;;;;4996977;28;20561;-82
2023/08/24 08:39:42;;;;;;;8.27;6.00;;;24.10;99.90;;;;;;4996005;28;20203;-83
2023/08/24 08:42:13;;;;;;;7.90;6.53;;;24.10;99.90;;;;;;4996482;28;20246;-82
2023/08/24 08:44:42;;;;;;;8.73;6.32;;;24.20;99.90;;;;;;5000935;28;20291;-83
2023/08/24 08:47:12;;;;;;;8.90;5.63;;;24.30;99.90;;;;;;5014936;28;20194;-84
2023/08/24 08:49:40;;;;;;;7.65;5.13;;;24.30;99.90;;;;;;5014949;28;20203;-83
2023/08/24 08:56:19;;;;;;;;;;;;;;;;;;;;;
2023/08/24 09:03:55;;;;;;;7.43;5.05;;;24.60;99.90;;;;;;4879152;29;20210;-81
2023/08/24 09:07:20;;;;;;;8.35;5.57;;;24.70;99.90;;;;;;4966611;28;20204;-81
2023/08/24 09:10:14;;;;;;;6.70;5.60;;;24.80;99.90;;;;;;4941521;29;20213;-81
2023/08/24 09:13:00;;;;;;;5.60;5.05;;;24.80;99.90;;;;;;4937250;29;20208;-81
2023/08/24 09:15:35;;;;;;;7.55;5.22;;;24.90;99.90;;;;;;4935769;29;20198;-83
2023/08/24 09:18:03;;;;;;;7.13;5.45;;;24.90;99.90;;;;;;4930724;29;20213;-81
2023/08/24 09:20:30;;;;;;;8.10;5.47;;;25.00;99.90;;;;;;4987837;28;20568;-80
2023/08/24 09:23:00;;;;;;;8.10;6.32;;;25.00;99.90;;;;;;5001996;28;20203;-80
2023/08/24 09:25:27;;;;;;;5.95;5.35;;;25.10;99.90;;;;;;5016232;28;20199;-81
2023/08/24 09:27:58;;;;;;;5.05;4.55;;;25.10;99.90;;;;;;5032666;28;20191;-79
2023/08/24 09:30:31;;;;;;;6.85;4.60;;;25.10;99.90;;;;;;5017897;28;20688;-83
2023/08/24 09:40:24;;;;;;;5.90;4.65;;;25.30;99.90;;;;;;4960849;28;20234;-83
2023/08/24 09:43:41;;;;;;;4.70;3.70;;;25.40;99.90;;;;;;5029066;28;20195;-82
2023/08/24 09:46:09;;;;;;;6.80;4.38;;;25.30;99.90;;;;;;5021674;28;20198;-83
2023/08/24 09:48:39;;;;;;;6.47;4.20;;;25.40;99.90;;;;;;5030092;28;20405;-83
2023/08/24 09:51:07;;;;;;;6.47;4.28;;;25.60;99.90;;;;;;5014702;28;20225;-82
2023/08/24 09:53:38;;;;;;;6.72;4.97;;;25.60;99.90;;;;;;5017854;28;20198;-83
2023/08/24 09:56:09;;;;;;;7.82;6.20;;;25.60;99.90;;;;;;5031878;28;20203;-83
2023/08/24 09:58:37;;;;;;;7.40;4.38;;;25.70;99.90;;;;;;5038550;28;20218;-83
2023/08/24 10:01:06;;;;;;;8.50;5.30;;;25.70;99.90;;;;;;5034943;28;20223;-81
2023/08/24 10:03:37;;;;;;;9.57;5.70;;;25.60;99.90;;;;;;5020853;28;20207;-80
2023/08/24 10:06:11;;;;;;;19.33;10.63;;;25.60;99.90;;;;;;5021101;28;20199;-80
2023/08/24 10:08:44;;;;;;;8.35;4.38;;;25.60;99.90;;;;;;5019673;28;20195;-81
2023/08/24 10:11:17;;;;;;;7.07;4.43;;;25.70;99.90;;;;;;5018759;28;20226;-81
2023/08/24 10:13:51;;;;;;;6.97;3.92;;;25.90;99.90;;;;;;5018386;28;20203;-81
2023/08/24 10:16:20;;;;;;;4.97;4.10;;;26.00;99.90;;;;;;5017960;28;20213;-81
2023/08/24 10:18:51;;;;;;;6.68;4.00;;;26.10;99.90;;;;;;5035445;28;20695;-81
2023/08/24 10:21:19;;;;;;;7.82;4.45;;;26.20;99.90;;;;;;5020129;28;20227;-81
2023/08/24 10:23:47;;;;;;;6.90;4.53;;;26.20;99.90;;;;;;5026152;28;20211;-81
2023/08/24 10:26:17;;;;;;;4.43;4.00;;;26.20;99.90;;;;;;5017198;28;20199;-78
2023/08/24 10:28:46;;;;;;;5.28;4.20;;;26.30;99.90;;;;;;5013454;28;20210;-81
2023/08/24 10:31:14;;;;;;;5.75;3.85;;;26.40;99.90;;;;;;5033268;28;20692;-81
2023/08/24 10:34:06;;;;;;;11.43;7.38;;;26.40;99.90;;;;;;5024487;28;20203;-81
2023/08/24 10:36:34;;;;;;;5.28;4.25;;;26.40;99.90;;;;;;5020586;28;20203;-80
2023/08/24 10:39:06;;;;;;;7.38;4.60;;;26.40;99.90;;;;;;5026589;28;20218;-81
2023/08/24 10:41:50;;;;;;;5.63;4.25;;;26.50;99.90;;;;;;5015583;28;20237;-80
2023/08/24 10:44:23;;;;;;;7.22;5.05;;;26.50;99.90;;;;;;5034497;28;20652;-81
2023/08/24 10:47:13;;;;;;;7.72;4.65;;;26.50;99.90;;;;;;5009744;28;20692;-80
2023/08/24 10:49:40;;;;;;;7.72;4.57;;;26.50;99.90;;;;;;5023980;28;20206;-81
2023/08/24 10:52:24;;;;;;;5.22;4.70;;;26.50;99.90;;;;;;5014490;28;20231;-81
2023/08/24 10:54:53;;;;;;;4.88;4.00;;;26.50;99.90;;;;;;5015358;28;20652;-81
2023/08/24 10:57:24;;;;;;;5.07;4.20;;;26.60;99.90;;;;;;5018163;28;20199;-80
2023/08/24 11:00:05;;;;;;;5.15;4.07;;;26.60;99.90;;;;;;5032288;28;20206;-80
2023/08/24 11:02:42;;;;;;;5.85;4.35;;;26.80;99.90;;;;;;5020557;28;20202;-81
2023/08/24 11:05:18;;;;;;;4.28;3.90;;;26.90;99.90;;;;;;5010715;28;20210;-81
2023/08/24 11:07:50;;;;;;;6.65;3.58;;;26.70;99.90;;;;;;5022862;28;20198;-81
2023/08/24 11:10:18;;;;;;;5.50;4.00;;;26.80;99.90;;;;;;5019903;28;20215;-81
2023/08/24 11:13:13;;;;;;;5.30;4.20;;;26.90;99.90;;;;;;5007190;28;20203;-81
2023/08/24 11:15:45;;;;;;;6.78;4.20;;;26.90;99.90;;;;;;5013956;28;20202;-80
2023/08/24 11:18:21;;;;;;;4.13;3.60;;;27.00;99.90;;;;;;5030469;28;20207;-81
2023/08/24 11:20:50;;;;;;;5.45;4.28;;;27.10;99.90;;;;;;5015748;28;20221;-80
2023/08/24 11:23:18;;;;;;;4.30;3.90;;;27.10;99.90;;;;;;5032187;28;20668;-82
2023/08/24 11:25:46;;;;;;;4.63;3.47;;;27.00;99.90;;;;;;5036575;28;20203;-81
2023/08/24 11:28:20;;;;;;;3.38;3.08;;;27.00;99.90;;;;;;5011292;28;20203;-81
2023/08/24 11:30:48;;;;;;;4.28;3.67;;;26.90;99.90;;;;;;5010210;28;20227;-81
2023/08/24 11:33:17;;;;;;;5.78;3.83;;;27.00;99.90;;;;;;5010681;28;20220;-82
2023/08/24 11:35:46;;;;;;;4.88;3.63;;;26.90;99.90;;;;;;5009365;28;20195;-81
2023/08/24 11:38:14;;;;;;;4.20;3.28;;;26.80;99.90;;;;;;5002569;28;20210;-81
2023/08/24 11:40:44;;;;;;;7.28;3.35;;;26.60;99.90;;;;;;5009934;28;20226;-82
2023/08/24 11:43:11;;;;;;;5.05;3.40;;;26.60;99.90;;;;;;5011868;28;20207;-81
2023/08/24 11:45:42;;;;;;;3.20;2.78;;;26.60;99.90;;;;;;5009495;28;20215;-81
2023/08/24 11:48:10;;;;;;;3.50;2.85;;;26.60;99.90;;;;;;5014194;28;20207;-81
2023/08/24 11:50:39;;;;;;;4.60;3.33;;;26.60;99.90;;;;;;5030215;28;20227;-80
2023/08/24 11:53:08;;;;;;;5.57;2.90;;;26.50;99.90;;;;;;5030592;28;20199;-82
2023/08/24 11:55:40;;;;;;;5.47;3.25;;;26.60;99.90;;;;;;5007278;28;20198;-82
2023/08/24 11:58:15;;;;;;;4.68;3.20;;;26.50;99.90;;;;;;5024763;28;20203;-81
2023/08/24 12:00:44;;;;;;;6.00;3.13;;;26.40;99.90;;;;;;5027602;28;20222;-82
2023/08/24 12:03:15;;;;;;;4.60;2.75;;;26.40;99.90;;;;;;5011018;28;20668;-82
2023/08/24 12:05:42;;;;;;;4.43;2.45;;;26.40;99.90;;;;;;5013866;28;20209;-81
2023/08/24 12:08:12;;;;;;;4.22;3.05;;;26.30;99.90;;;;;;5013985;28;20210;-82
2023/08/24 12:10:43;;;;;;;3.45;2.92;;;26.40;99.90;;;;;;5013870;28;20581;-82
2023/08/24 12:13:12;;;;;;;3.00;2.63;;;26.50;99.90;;;;;;5014573;28;20199;-82
2023/08/24 12:15:41;;;;;;;5.05;3.10;;;26.60;99.90;;;;;;5032323;28;20683;-82
2023/08/24 12:18:12;;;;;;;4.22;3.10;;;26.70;99.90;;;;;;5013847;28;20211;-82
2023/08/24 12:20:40;;;;;;;4.53;3.08;;;26.80;99.90;;;;;;5012812;28;20230;-81
2023/08/24 12:23:08;;;;;;;5.35;2.80;;;26.80;99.90;;;;;;5013801;28;20210;-82
2023/08/24 12:25:38;;;;;;;3.22;2.92;;;26.80;99.90;;;;;;5013479;28;20199;-82
2023/08/24 12:28:10;;;;;;;4.57;2.95;;;26.70;99.90;;;;;;5013416;28;20599;-81
2023/08/24 12:30:48;;;;;;;7.15;3.33;;;26.70;99.90;;;;;;5013653;28;20229;-81
2023/08/24 12:33:25;;;;;;;4.35;3.17;;;26.70;99.90;;;;;;5013658;28;20199;-82
2023/08/24 12:35:53;;;;;;;3.13;2.83;;;26.70;99.90;;;;;;5014033;28;20213;-81
2023/08/24 12:38:21;;;;;;;3.83;3.17;;;26.70;99.90;;;;;;5013842;28;20203;-82
2023/08/24 12:40:48;;;;;;;3.47;3.15;;;26.60;99.90;;;;;;5030953;28;20233;-82
2023/08/24 12:43:16;;;;;;;3.50;3.20;;;26.70;99.90;;;;;;5013465;28;20206;-82
2023/08/24 12:45:44;;;;;;;3.70;2.92;;;26.70;99.90;;;;;;5008497;28;20206;-82
2023/08/24 12:48:11;;;;;;;4.35;3.08;;;26.60;99.90;;;;;;4996069;28;20199;-81
2023/08/24 12:50:40;;;;;;;4.97;3.65;;;26.60;99.90;;;;;;5021244;28;20589;-82
2023/08/24 12:53:08;;;;;;;4.90;3.15;;;26.60;99.90;;;;;;5027239;28;20539;-81
2023/08/24 12:55:37;;;;;;;3.92;3.25;;;26.50;99.90;;;;;;5015778;28;20234;-81
2023/08/24 12:58:05;;;;;;;4.70;3.33;;;26.40;99.90;;;;;;5003564;28;20207;-81
2023/08/24 13:00:32;;;;;;;6.45;3.55;;;26.40;99.90;;;;;;5010819;28;20227;-81
2023/08/24 13:03:08;;;;;;;4.30;3.28;;;26.40;99.90;;;;;;5011371;28;20207;-81
2023/08/24 13:05:35;;;;;;;4.72;3.33;;;26.30;99.90;;;;;;5029778;28;20206;-81
2023/08/24 13:08:05;;;;;;;4.85;3.30;;;26.30;99.90;;;;;;5008577;28;20568;-81
2023/08/24 13:10:33;;;;;;;4.40;3.30;;;26.20;99.90;;;;;;5012208;28;20219;-82
2023/08/24 13:13:00;;;;;;;3.72;3.13;;;26.00;99.90;;;;;;5008504;28;20207;-81
2023/08/24 13:15:28;;;;;;;4.95;3.50;;;26.00;99.90;;;;;;5008619;28;20678;-81